sensor_id;sensor_type;location;lat;lon;timestamp;P1;durP1;ratioP1;P2;durP2;ratioP2
6388;SDS011;3227;42.654;23.360;2023-05-07T00:01:49;11.47;;;5.73;;
6388;SDS011;3227;42.654;23.360;2023-05-07T00:04:17;9.10;;;5.83;;
6388;SDS011;3227;42.654;23.360;2023-05-07T00:06:43;9.97;;;5.60;;
6388;SDS011;3227;42.654;23.360;2023-05-07T00:09:11;10.70;;;5.90;;
6388;SDS011;3227;42.654;23.360;2023-05-07T00:11:38;11.80;;;6.00;;
6388;SDS011;3227;42.654;23.360;2023-05-07T00:14:05;9.80;;;5.53;;
6388;SDS011;3227;42.654;23.360;2023-05-07T00:16:32;14.63;;;7.20;;
6388;SDS011;3227;42.654;23.360;2023-05-07T00:18:59;11.97;;;7.33;;
6388;SDS011;3227;42.654;23.360;2023-05-07T00:21:26;15.00;;;7.23;;
6388;SDS011;3227;42.654;23.360;2023-05-07T00:23:53;13.20;;;7.40;;
6388;SDS011;3227;42.654;23.360;2023-05-07T00:26:21;12.00;;;7.00;;
6388;SDS011;3227;42.654;23.360;2023-05-07T00:28:48;12.23;;;7.40;;
6388;SDS011;3227;42.654;23.360;2023-05-07T00:31:15;16.53;;;7.67;;
6388;SDS011;3227;42.654;23.360;2023-05-07T00:33:42;13.67;;;6.93;;
6388;SDS011;3227;42.654;23.360;2023-05-07T00:36:09;9.43;;;6.27;;
6388;SDS011;3227;42.654;23.360;2023-05-07T00:38:35;9.53;;;6.60;;
6388;SDS011;3227;42.654;23.360;2023-05-07T00:41:02;11.30;;;7.40;;
6388;SDS011;3227;42.654;23.360;2023-05-07T00:43:30;13.87;;;7.37;;
6388;SDS011;3227;42.654;23.360;2023-05-07T00:45:58;12.53;;;7.17;;
6388;SDS011;3227;42.654;23.360;2023-05-07T00:48:25;16.27;;;7.77;;
6388;SDS011;3227;42.654;23.360;2023-05-07T00:50:52;12.30;;;8.10;;
6388;SDS011;3227;42.654;23.360;2023-05-07T00:53:20;11.83;;;7.97;;
6388;SDS011;3227;42.654;23.360;2023-05-07T00:55:47;10.87;;;7.00;;
6388;SDS011;3227;42.654;23.360;2023-05-07T00:58:14;12.43;;;6.93;;
6388;SDS011;3227;42.654;23.360;2023-05-07T01:00:43;16.77;;;7.70;;
6388;SDS011;3227;42.654;23.360;2023-05-07T01:03:09;11.87;;;7.43;;
6388;SDS011;3227;42.654;23.360;2023-05-07T01:05:36;14.60;;;7.90;;
6388;SDS011;3227;42.654;23.360;2023-05-07T01:08:04;12.20;;;6.70;;
6388;SDS011;3227;42.654;23.360;2023-05-07T01:10:31;10.43;;;6.37;;
6388;SDS011;3227;42.654;23.360;2023-05-07T01:12:58;10.57;;;5.50;;
6388;SDS011;3227;42.654;23.360;2023-05-07T01:15:26;9.20;;;5.60;;
6388;SDS011;3227;42.654;23.360;2023-05-07T01:17:54;9.30;;;5.90;;
6388;SDS011;3227;42.654;23.360;2023-05-07T01:20:22;9.63;;;4.67;;
6388;SDS011;3227;42.654;23.360;2023-05-07T01:22:51;9.00;;;5.13;;
6388;SDS011;3227;42.654;23.360;2023-05-07T01:25:19;12.67;;;5.10;;
6388;SDS011;3227;42.654;23.360;2023-05-07T01:27:46;11.80;;;5.00;;
6388;SDS011;3227;42.654;23.360;2023-05-07T01:30:13;9.13;;;5.33;;
6388;SDS011;3227;42.654;23.360;2023-05-07T01:32:42;7.40;;;4.90;;
6388;SDS011;3227;42.654;23.360;2023-05-07T01:35:13;7.73;;;5.13;;
6388;SDS011;3227;42.654;23.360;2023-05-07T01:37:45;9.73;;;5.60;;
6388;SDS011;3227;42.654;23.360;2023-05-07T01:40:14;8.00;;;5.27;;
6388;SDS011;3227;42.654;23.360;2023-05-07T01:42:41;8.77;;;5.33;;
6388;SDS011;3227;42.654;23.360;2023-05-07T01:45:10;8.57;;;6.00;;
6388;SDS011;3227;42.654;23.360;2023-05-07T01:47:37;13.20;;;6.47;;
6388;SDS011;3227;42.654;23.360;2023-05-07T01:50:06;9.13;;;6.07;;
6388;SDS011;3227;42.654;23.360;2023-05-07T01:52:35;9.93;;;7.03;;
6388;SDS011;3227;42.654;23.360;2023-05-07T01:55:04;9.73;;;6.77;;
6388;SDS011;3227;42.654;23.360;2023-05-07T01:57:34;10.40;;;7.20;;
6388;SDS011;3227;42.654;23.360;2023-05-07T02:00:01;10.20;;;7.20;;
6388;SDS011;3227;42.654;23.360;2023-05-07T02:02:31;15.57;;;8.10;;
6388;SDS011;3227;42.654;23.360;2023-05-07T02:04:59;11.90;;;7.43;;
6388;SDS011;3227;42.654;23.360;2023-05-07T02:07:26;12.80;;;7.73;;
6388;SDS011;3227;42.654;23.360;2023-05-07T02:09:53;11.20;;;8.03;;
6388;SDS011;3227;42.654;23.360;2023-05-07T02:12:20;13.10;;;7.93;;
6388;SDS011;3227;42.654;23.360;2023-05-07T02:14:48;13.67;;;8.13;;
6388;SDS011;3227;42.654;23.360;2023-05-07T02:17:15;12.20;;;7.90;;
6388;SDS011;3227;42.654;23.360;2023-05-07T02:19:42;12.40;;;7.73;;
6388;SDS011;3227;42.654;23.360;2023-05-07T02:22:09;10.93;;;7.43;;
6388;SDS011;3227;42.654;23.360;2023-05-07T02:24:36;12.60;;;8.07;;
6388;SDS011;3227;42.654;23.360;2023-05-07T02:27:03;11.37;;;7.83;;
6388;SDS011;3227;42.654;23.360;2023-05-07T02:29:30;14.93;;;7.63;;
6388;SDS011;3227;42.654;23.360;2023-05-07T02:31:58;11.50;;;7.70;;
6388;SDS011;3227;42.654;23.360;2023-05-07T02:34:25;10.87;;;7.73;;
6388;SDS011;3227;42.654;23.360;2023-05-07T02:36:52;12.00;;;7.70;;
6388;SDS011;3227;42.654;23.360;2023-05-07T02:39:18;12.43;;;7.80;;
6388;SDS011;3227;42.654;23.360;2023-05-07T02:41:45;12.63;;;8.40;;
6388;SDS011;3227;42.654;23.360;2023-05-07T02:44:12;15.97;;;8.47;;
6388;SDS011;3227;42.654;23.360;2023-05-07T02:46:39;12.77;;;8.50;;
6388;SDS011;3227;42.654;23.360;2023-05-07T02:49:07;12.63;;;8.20;;
6388;SDS011;3227;42.654;23.360;2023-05-07T02:51:34;12.67;;;8.60;;
6388;SDS011;3227;42.654;23.360;2023-05-07T02:54:00;17.33;;;8.77;;
6388;SDS011;3227;42.654;23.360;2023-05-07T02:56:27;12.30;;;8.53;;
6388;SDS011;3227;42.654;23.360;2023-05-07T02:58:54;13.80;;;8.70;;
6388;SDS011;3227;42.654;23.360;2023-05-07T03:01:21;14.90;;;9.20;;
6388;SDS011;3227;42.654;23.360;2023-05-07T03:03:48;16.07;;;10.03;;
6388;SDS011;3227;42.654;23.360;2023-05-07T03:06:16;13.23;;;8.57;;
6388;SDS011;3227;42.654;23.360;2023-05-07T03:08:43;12.87;;;9.40;;
6388;SDS011;3227;42.654;23.360;2023-05-07T03:11:10;15.93;;;9.80;;
6388;SDS011;3227;42.654;23.360;2023-05-07T03:13:37;11.73;;;9.33;;
6388;SDS011;3227;42.654;23.360;2023-05-07T03:16:04;16.33;;;10.20;;
6388;SDS011;3227;42.654;23.360;2023-05-07T03:18:31;16.37;;;9.93;;
6388;SDS011;3227;42.654;23.360;2023-05-07T03:20:58;14.47;;;10.43;;
6388;SDS011;3227;42.654;23.360;2023-05-07T03:23:26;15.23;;;10.23;;
6388;SDS011;3227;42.654;23.360;2023-05-07T03:25:53;17.13;;;11.23;;
6388;SDS011;3227;42.654;23.360;2023-05-07T03:28:19;16.10;;;10.37;;
6388;SDS011;3227;42.654;23.360;2023-05-07T03:30:46;14.37;;;10.73;;
6388;SDS011;3227;42.654;23.360;2023-05-07T03:33:13;15.70;;;11.33;;
6388;SDS011;3227;42.654;23.360;2023-05-07T03:35:40;16.63;;;11.10;;
6388;SDS011;3227;42.654;23.360;2023-05-07T03:38:07;13.83;;;10.47;;
6388;SDS011;3227;42.654;23.360;2023-05-07T03:40:35;14.87;;;11.00;;
6388;SDS011;3227;42.654;23.360;2023-05-07T03:43:02;15.10;;;10.60;;
6388;SDS011;3227;42.654;23.360;2023-05-07T03:45:29;14.23;;;10.50;;
6388;SDS011;3227;42.654;23.360;2023-05-07T03:47:55;15.83;;;10.03;;
6388;SDS011;3227;42.654;23.360;2023-05-07T03:50:22;16.80;;;9.90;;
6388;SDS011;3227;42.654;23.360;2023-05-07T03:52:49;13.37;;;9.07;;
6388;SDS011;3227;42.654;23.360;2023-05-07T03:55:16;12.17;;;8.57;;
6388;SDS011;3227;42.654;23.360;2023-05-07T03:57:44;12.80;;;9.27;;
6388;SDS011;3227;42.654;23.360;2023-05-07T04:00:11;12.57;;;9.17;;
6388;SDS011;3227;42.654;23.360;2023-05-07T04:02:39;11.80;;;8.90;;
6388;SDS011;3227;42.654;23.360;2023-05-07T04:05:06;16.47;;;8.53;;
6388;SDS011;3227;42.654;23.360;2023-05-07T04:07:33;12.70;;;8.10;;
6388;SDS011;3227;42.654;23.360;2023-05-07T04:10:00;14.80;;;8.30;;
6388;SDS011;3227;42.654;23.360;2023-05-07T04:12:27;13.00;;;7.37;;
6388;SDS011;3227;42.654;23.360;2023-05-07T04:14:55;11.70;;;8.27;;
6388;SDS011;3227;42.654;23.360;2023-05-07T04:17:22;12.93;;;7.00;;
6388;SDS011;3227;42.654;23.360;2023-05-07T04:19:49;14.10;;;7.95;;
6388;SDS011;3227;42.654;23.360;2023-05-07T04:22:15;15.15;;;7.72;;
6388;SDS011;3227;42.654;23.360;2023-05-07T04:24:42;11.93;;;7.85;;
6388;SDS011;3227;42.654;23.360;2023-05-07T04:27:09;11.55;;;7.45;;
6388;SDS011;3227;42.654;23.360;2023-05-07T04:29:36;17.25;;;7.65;;
6388;SDS011;3227;42.654;23.360;2023-05-07T04:32:05;13.43;;;7.85;;
6388;SDS011;3227;42.654;23.360;2023-05-07T04:34:32;16.40;;;7.63;;
6388;SDS011;3227;42.654;23.360;2023-05-07T04:36:58;13.80;;;7.30;;
6388;SDS011;3227;42.654;23.360;2023-05-07T04:39:25;12.15;;;8.15;;
6388;SDS011;3227;42.654;23.360;2023-05-07T04:41:52;10.68;;;6.88;;
6388;SDS011;3227;42.654;23.360;2023-05-07T04:44:19;13.57;;;7.50;;
6388;SDS011;3227;42.654;23.360;2023-05-07T04:46:46;16.25;;;8.00;;
6388;SDS011;3227;42.654;23.360;2023-05-07T04:49:14;11.32;;;7.40;;
6388;SDS011;3227;42.654;23.360;2023-05-07T04:51:40;13.65;;;9.05;;
6388;SDS011;3227;42.654;23.360;2023-05-07T04:54:08;14.50;;;8.45;;
6388;SDS011;3227;42.654;23.360;2023-05-07T04:56:35;15.55;;;9.05;;
6388;SDS011;3227;42.654;23.360;2023-05-07T04:59:02;12.90;;;8.68;;
6388;SDS011;3227;42.654;23.360;2023-05-07T05:01:28;13.02;;;8.32;;
6388;SDS011;3227;42.654;23.360;2023-05-07T05:03:55;14.75;;;8.15;;
6388;SDS011;3227;42.654;23.360;2023-05-07T05:06:23;14.48;;;7.93;;
6388;SDS011;3227;42.654;23.360;2023-05-07T05:08:50;13.98;;;8.07;;
6388;SDS011;3227;42.654;23.360;2023-05-07T05:11:17;12.02;;;8.02;;
6388;SDS011;3227;42.654;23.360;2023-05-07T05:13:44;13.02;;;8.18;;
6388;SDS011;3227;42.654;23.360;2023-05-07T05:16:13;9.85;;;7.35;;
6388;SDS011;3227;42.654;23.360;2023-05-07T05:18:40;12.73;;;7.95;;
6388;SDS011;3227;42.654;23.360;2023-05-07T05:21:07;15.00;;;8.55;;
6388;SDS011;3227;42.654;23.360;2023-05-07T05:23:35;15.45;;;9.75;;
6388;SDS011;3227;42.654;23.360;2023-05-07T05:26:02;12.38;;;8.48;;
6388;SDS011;3227;42.654;23.360;2023-05-07T05:28:28;14.00;;;8.73;;
6388;SDS011;3227;42.654;23.360;2023-05-07T05:30:55;12.80;;;8.35;;
6388;SDS011;3227;42.654;23.360;2023-05-07T05:33:22;14.05;;;9.45;;
6388;SDS011;3227;42.654;23.360;2023-05-07T05:35:49;14.65;;;9.27;;
6388;SDS011;3227;42.654;23.360;2023-05-07T05:38:16;13.95;;;8.90;;
6388;SDS011;3227;42.654;23.360;2023-05-07T05:40:44;15.55;;;9.63;;
6388;SDS011;3227;42.654;23.360;2023-05-07T05:43:11;11.80;;;8.07;;
6388;SDS011;3227;42.654;23.360;2023-05-07T05:45:38;16.08;;;10.88;;
6388;SDS011;3227;42.654;23.360;2023-05-07T05:48:05;14.23;;;10.20;;
6388;SDS011;3227;42.654;23.360;2023-05-07T05:50:33;13.13;;;8.63;;
6388;SDS011;3227;42.654;23.360;2023-05-07T05:53:00;16.13;;;8.75;;
6388;SDS011;3227;42.654;23.360;2023-05-07T05:55:27;14.30;;;9.48;;
6388;SDS011;3227;42.654;23.360;2023-05-07T05:57:56;15.38;;;8.60;;
6388;SDS011;3227;42.654;23.360;2023-05-07T06:00:22;13.30;;;8.63;;
6388;SDS011;3227;42.654;23.360;2023-05-07T06:02:49;12.32;;;7.85;;
6388;SDS011;3227;42.654;23.360;2023-05-07T06:05:16;14.35;;;9.13;;
6388;SDS011;3227;42.654;23.360;2023-05-07T06:07:43;13.07;;;8.88;;
6388;SDS011;3227;42.654;23.360;2023-05-07T06:10:10;12.75;;;9.18;;
6388;SDS011;3227;42.654;23.360;2023-05-07T06:12:37;14.55;;;9.38;;
6388;SDS011;3227;42.654;23.360;2023-05-07T06:15:06;15.43;;;9.35;;
6388;SDS011;3227;42.654;23.360;2023-05-07T06:17:33;12.57;;;9.00;;
6388;SDS011;3227;42.654;23.360;2023-05-07T06:20:00;14.65;;;8.68;;
6388;SDS011;3227;42.654;23.360;2023-05-07T06:22:27;13.65;;;8.52;;
6388;SDS011;3227;42.654;23.360;2023-05-07T06:24:54;12.68;;;8.23;;
6388;SDS011;3227;42.654;23.360;2023-05-07T06:27:21;13.18;;;8.27;;
6388;SDS011;3227;42.654;23.360;2023-05-07T06:29:47;13.43;;;7.80;;
6388;SDS011;3227;42.654;23.360;2023-05-07T06:32:16;12.18;;;8.55;;
6388;SDS011;3227;42.654;23.360;2023-05-07T06:34:44;12.13;;;8.32;;
6388;SDS011;3227;42.654;23.360;2023-05-07T06:37:11;14.77;;;9.45;;
6388;SDS011;3227;42.654;23.360;2023-05-07T06:39:38;15.15;;;8.60;;
6388;SDS011;3227;42.654;23.360;2023-05-07T06:42:05;12.63;;;9.15;;
6388;SDS011;3227;42.654;23.360;2023-05-07T06:44:31;14.00;;;8.55;;
6388;SDS011;3227;42.654;23.360;2023-05-07T06:46:58;13.27;;;7.93;;
6388;SDS011;3227;42.654;23.360;2023-05-07T06:49:26;16.50;;;9.02;;
6388;SDS011;3227;42.654;23.360;2023-05-07T06:51:53;11.88;;;8.23;;
6388;SDS011;3227;42.654;23.360;2023-05-07T06:54:20;13.43;;;8.57;;
6388;SDS011;3227;42.654;23.360;2023-05-07T06:56:47;12.57;;;8.25;;
6388;SDS011;3227;42.654;23.360;2023-05-07T06:59:14;13.82;;;8.27;;
6388;SDS011;3227;42.654;23.360;2023-05-07T07:01:41;12.23;;;7.93;;
6388;SDS011;3227;42.654;23.360;2023-05-07T07:04:08;12.48;;;8.15;;
6388;SDS011;3227;42.654;23.360;2023-05-07T07:06:36;12.73;;;7.45;;
6388;SDS011;3227;42.654;23.360;2023-05-07T07:09:03;14.90;;;8.40;;
6388;SDS011;3227;42.654;23.360;2023-05-07T07:11:30;11.13;;;7.97;;
6388;SDS011;3227;42.654;23.360;2023-05-07T07:13:57;13.25;;;8.15;;
6388;SDS011;3227;42.654;23.360;2023-05-07T07:16:24;14.02;;;7.95;;
6388;SDS011;3227;42.654;23.360;2023-05-07T07:18:51;12.77;;;8.27;;
6388;SDS011;3227;42.654;23.360;2023-05-07T07:21:17;12.38;;;8.55;;
6388;SDS011;3227;42.654;23.360;2023-05-07T07:23:46;12.13;;;8.70;;
6388;SDS011;3227;42.654;23.360;2023-05-07T07:26:13;12.80;;;7.75;;
6388;SDS011;3227;42.654;23.360;2023-05-07T07:28:43;13.88;;;7.93;;
6388;SDS011;3227;42.654;23.360;2023-05-07T07:31:10;12.18;;;7.55;;
6388;SDS011;3227;42.654;23.360;2023-05-07T07:33:37;15.90;;;9.00;;
6388;SDS011;3227;42.654;23.360;2023-05-07T07:36:05;19.20;;;8.85;;
6388;SDS011;3227;42.654;23.360;2023-05-07T07:38:32;10.88;;;7.35;;
6388;SDS011;3227;42.654;23.360;2023-05-07T07:41:00;11.32;;;7.93;;
6388;SDS011;3227;42.654;23.360;2023-05-07T07:43:27;13.30;;;8.18;;
6388;SDS011;3227;42.654;23.360;2023-05-07T07:45:54;16.92;;;7.70;;
6388;SDS011;3227;42.654;23.360;2023-05-07T07:48:21;11.38;;;8.23;;
6388;SDS011;3227;42.654;23.360;2023-05-07T07:50:48;14.27;;;8.70;;
6388;SDS011;3227;42.654;23.360;2023-05-07T07:53:16;13.45;;;8.38;;
6388;SDS011;3227;42.654;23.360;2023-05-07T07:55:43;14.73;;;8.45;;
6388;SDS011;3227;42.654;23.360;2023-05-07T07:58:11;12.77;;;8.65;;
6388;SDS011;3227;42.654;23.360;2023-05-07T08:00:38;16.80;;;8.50;;
6388;SDS011;3227;42.654;23.360;2023-05-07T08:03:04;12.18;;;7.80;;
6388;SDS011;3227;42.654;23.360;2023-05-07T08:05:32;12.50;;;8.68;;
6388;SDS011;3227;42.654;23.360;2023-05-07T08:07:59;15.15;;;9.05;;
6388;SDS011;3227;42.654;23.360;2023-05-07T08:10:26;17.40;;;8.95;;
6388;SDS011;3227;42.654;23.360;2023-05-07T08:12:52;15.07;;;9.23;;
6388;SDS011;3227;42.654;23.360;2023-05-07T08:15:21;12.98;;;9.60;;
6388;SDS011;3227;42.654;23.360;2023-05-07T08:17:47;14.63;;;9.27;;
6388;SDS011;3227;42.654;23.360;2023-05-07T08:20:14;14.27;;;9.55;;
6388;SDS011;3227;42.654;23.360;2023-05-07T08:22:41;12.52;;;8.50;;
6388;SDS011;3227;42.654;23.360;2023-05-07T08:25:08;13.07;;;8.80;;
6388;SDS011;3227;42.654;23.360;2023-05-07T08:27:35;13.88;;;8.20;;
6388;SDS011;3227;42.654;23.360;2023-05-07T08:30:02;15.35;;;8.70;;
6388;SDS011;3227;42.654;23.360;2023-05-07T08:32:31;18.25;;;7.97;;
6388;SDS011;3227;42.654;23.360;2023-05-07T08:34:58;15.98;;;9.45;;
6388;SDS011;3227;42.654;23.360;2023-05-07T08:37:25;13.85;;;8.80;;
6388;SDS011;3227;42.654;23.360;2023-05-07T08:39:52;15.70;;;8.52;;
6388;SDS011;3227;42.654;23.360;2023-05-07T08:42:18;14.82;;;8.60;;
6388;SDS011;3227;42.654;23.360;2023-05-07T08:44:49;13.15;;;7.32;;
6388;SDS011;3227;42.654;23.360;2023-05-07T08:47:18;11.80;;;8.07;;
6388;SDS011;3227;42.654;23.360;2023-05-07T08:49:47;11.75;;;7.65;;
6388;SDS011;3227;42.654;23.360;2023-05-07T08:52:14;11.35;;;6.90;;
6388;SDS011;3227;42.654;23.360;2023-05-07T08:54:41;11.80;;;7.18;;
6388;SDS011;3227;42.654;23.360;2023-05-07T08:57:09;14.18;;;7.35;;
6388;SDS011;3227;42.654;23.360;2023-05-07T08:59:36;10.90;;;7.35;;
6388;SDS011;3227;42.654;23.360;2023-05-07T09:02:03;13.77;;;7.30;;
6388;SDS011;3227;42.654;23.360;2023-05-07T09:04:30;12.00;;;6.63;;
6388;SDS011;3227;42.654;23.360;2023-05-07T09:06:59;13.57;;;6.00;;
6388;SDS011;3227;42.654;23.360;2023-05-07T09:09:31;9.50;;;6.32;;
6388;SDS011;3227;42.654;23.360;2023-05-07T09:11:58;10.43;;;6.57;;
6388;SDS011;3227;42.654;23.360;2023-05-07T09:14:25;8.13;;;5.20;;
6388;SDS011;3227;42.654;23.360;2023-05-07T09:16:52;7.75;;;4.93;;
6388;SDS011;3227;42.654;23.360;2023-05-07T09:19:22;8.40;;;4.85;;
6388;SDS011;3227;42.654;23.360;2023-05-07T09:21:49;8.30;;;6.00;;
6388;SDS011;3227;42.654;23.360;2023-05-07T09:24:17;13.40;;;6.30;;
6388;SDS011;3227;42.654;23.360;2023-05-07T09:26:44;11.05;;;6.45;;
6388;SDS011;3227;42.654;23.360;2023-05-07T09:29:11;10.77;;;6.13;;
6388;SDS011;3227;42.654;23.360;2023-05-07T09:31:38;11.70;;;5.93;;
6388;SDS011;3227;42.654;23.360;2023-05-07T09:34:05;8.95;;;6.03;;
6388;SDS011;3227;42.654;23.360;2023-05-07T09:36:33;11.13;;;5.70;;
6388;SDS011;3227;42.654;23.360;2023-05-07T09:39:05;9.18;;;5.85;;
6388;SDS011;3227;42.654;23.360;2023-05-07T09:41:33;9.98;;;5.80;;
6388;SDS011;3227;42.654;23.360;2023-05-07T09:44:09;9.30;;;6.10;;
6388;SDS011;3227;42.654;23.360;2023-05-07T09:46:37;9.55;;;6.38;;
6388;SDS011;3227;42.654;23.360;2023-05-07T09:49:05;12.15;;;6.35;;
6388;SDS011;3227;42.654;23.360;2023-05-07T09:51:37;9.20;;;5.55;;
6388;SDS011;3227;42.654;23.360;2023-05-07T09:54:15;10.20;;;6.13;;
6388;SDS011;3227;42.654;23.360;2023-05-07T09:56:43;9.88;;;5.80;;
6388;SDS011;3227;42.654;23.360;2023-05-07T09:59:16;8.13;;;5.50;;
6388;SDS011;3227;42.654;23.360;2023-05-07T10:01:44;9.90;;;5.55;;
6388;SDS011;3227;42.654;23.360;2023-05-07T10:04:11;9.18;;;5.13;;
6388;SDS011;3227;42.654;23.360;2023-05-07T10:06:38;8.82;;;5.18;;
6388;SDS011;3227;42.654;23.360;2023-05-07T10:09:07;9.82;;;5.28;;
6388;SDS011;3227;42.654;23.360;2023-05-07T10:11:35;8.77;;;5.20;;
6388;SDS011;3227;42.654;23.360;2023-05-07T10:14:05;8.93;;;5.10;;
6388;SDS011;3227;42.654;23.360;2023-05-07T10:16:32;10.25;;;5.30;;
6388;SDS011;3227;42.654;23.360;2023-05-07T10:19:02;10.00;;;5.95;;
6388;SDS011;3227;42.654;23.360;2023-05-07T10:21:29;12.60;;;4.90;;
6388;SDS011;3227;42.654;23.360;2023-05-07T10:23:58;12.85;;;4.70;;
6388;SDS011;3227;42.654;23.360;2023-05-07T10:26:27;8.98;;;4.47;;
6388;SDS011;3227;42.654;23.360;2023-05-07T10:28:57;8.63;;;4.90;;
6388;SDS011;3227;42.654;23.360;2023-05-07T10:31:36;8.18;;;4.80;;
6388;SDS011;3227;42.654;23.360;2023-05-07T10:34:13;12.10;;;5.22;;
6388;SDS011;3227;42.654;23.360;2023-05-07T10:36:44;9.85;;;5.47;;
6388;SDS011;3227;42.654;23.360;2023-05-07T10:39:11;9.35;;;5.07;;
6388;SDS011;3227;42.654;23.360;2023-05-07T10:41:39;8.07;;;4.90;;
6388;SDS011;3227;42.654;23.360;2023-05-07T10:44:06;8.75;;;4.43;;
6388;SDS011;3227;42.654;23.360;2023-05-07T10:46:33;9.30;;;4.50;;
6388;SDS011;3227;42.654;23.360;2023-05-07T10:49:08;6.47;;;4.32;;
6388;SDS011;3227;42.654;23.360;2023-05-07T10:51:37;10.30;;;5.00;;
6388;SDS011;3227;42.654;23.360;2023-05-07T10:54:20;6.88;;;4.18;;
6388;SDS011;3227;42.654;23.360;2023-05-07T10:56:48;7.40;;;4.53;;
6388;SDS011;3227;42.654;23.360;2023-05-07T10:59:37;9.95;;;5.13;;
6388;SDS011;3227;42.654;23.360;2023-05-07T11:02:07;9.43;;;4.85;;
6388;SDS011;3227;42.654;23.360;2023-05-07T11:04:37;8.23;;;4.70;;
6388;SDS011;3227;42.654;23.360;2023-05-07T11:09:58;8.50;;;5.18;;
6388;SDS011;3227;42.654;23.360;2023-05-07T11:15:38;7.03;;;4.50;;
6388;SDS011;3227;42.654;23.360;2023-05-07T11:18:07;7.55;;;4.53;;
6388;SDS011;3227;42.654;23.360;2023-05-07T11:26:23;8.52;;;5.25;;
6388;SDS011;3227;42.654;23.360;2023-05-07T11:28:51;11.63;;;4.63;;
6388;SDS011;3227;42.654;23.360;2023-05-07T11:31:26;12.10;;;5.28;;
6388;SDS011;3227;42.654;23.360;2023-05-07T11:33:55;10.27;;;5.00;;
6388;SDS011;3227;42.654;23.360;2023-05-07T11:36:24;7.90;;;4.60;;
6388;SDS011;3227;42.654;23.360;2023-05-07T11:38:52;9.85;;;5.20;;
6388;SDS011;3227;42.654;23.360;2023-05-07T11:41:18;10.95;;;4.72;;
6388;SDS011;3227;42.654;23.360;2023-05-07T11:43:55;9.88;;;4.50;;
6388;SDS011;3227;42.654;23.360;2023-05-07T11:46:23;7.80;;;4.85;;
6388;SDS011;3227;42.654;23.360;2023-05-07T11:48:50;6.93;;;4.53;;
6388;SDS011;3227;42.654;23.360;2023-05-07T11:51:20;8.15;;;4.70;;
6388;SDS011;3227;42.654;23.360;2023-05-07T11:53:49;9.23;;;4.43;;
6388;SDS011;3227;42.654;23.360;2023-05-07T11:56:17;8.07;;;5.13;;
6388;SDS011;3227;42.654;23.360;2023-05-07T11:58:45;10.43;;;4.53;;
6388;SDS011;3227;42.654;23.360;2023-05-07T12:01:13;9.38;;;4.78;;
6388;SDS011;3227;42.654;23.360;2023-05-07T12:03:41;8.63;;;4.90;;
6388;SDS011;3227;42.654;23.360;2023-05-07T12:06:11;8.70;;;4.90;;
6388;SDS011;3227;42.654;23.360;2023-05-07T12:08:39;7.68;;;4.30;;
6388;SDS011;3227;42.654;23.360;2023-05-07T12:11:08;6.68;;;4.55;;
6388;SDS011;3227;42.654;23.360;2023-05-07T12:13:38;10.30;;;5.63;;
6388;SDS011;3227;42.654;23.360;2023-05-07T12:16:05;9.40;;;5.10;;
6388;SDS011;3227;42.654;23.360;2023-05-07T12:18:34;9.50;;;4.93;;
6388;SDS011;3227;42.654;23.360;2023-05-07T12:21:01;9.73;;;5.55;;
6388;SDS011;3227;42.654;23.360;2023-05-07T12:23:30;11.02;;;5.65;;
6388;SDS011;3227;42.654;23.360;2023-05-07T12:25:57;8.30;;;4.93;;
6388;SDS011;3227;42.654;23.360;2023-05-07T12:28:26;7.15;;;4.85;;
6388;SDS011;3227;42.654;23.360;2023-05-07T12:30:53;8.50;;;4.72;;
6388;SDS011;3227;42.654;23.360;2023-05-07T12:33:23;9.40;;;4.55;;
6388;SDS011;3227;42.654;23.360;2023-05-07T12:35:51;8.02;;;4.57;;
6388;SDS011;3227;42.654;23.360;2023-05-07T12:38:20;8.40;;;4.20;;
6388;SDS011;3227;42.654;23.360;2023-05-07T12:40:47;8.43;;;4.75;;
6388;SDS011;3227;42.654;23.360;2023-05-07T12:43:16;8.80;;;4.47;;
6388;SDS011;3227;42.654;23.360;2023-05-07T12:45:45;10.68;;;4.53;;
6388;SDS011;3227;42.654;23.360;2023-05-07T12:48:13;8.73;;;4.60;;
6388;SDS011;3227;42.654;23.360;2023-05-07T12:50:40;8.70;;;4.50;;
6388;SDS011;3227;42.654;23.360;2023-05-07T12:53:08;7.57;;;4.25;;
6388;SDS011;3227;42.654;23.360;2023-05-07T12:55:40;11.30;;;4.00;;
6388;SDS011;3227;42.654;23.360;2023-05-07T12:58:08;9.70;;;4.10;;
6388;SDS011;3227;42.654;23.360;2023-05-07T13:00:41;6.18;;;3.63;;
6388;SDS011;3227;42.654;23.360;2023-05-07T13:03:10;5.80;;;3.22;;
6388;SDS011;3227;42.654;23.360;2023-05-07T13:05:37;6.10;;;3.53;;
6388;SDS011;3227;42.654;23.360;2023-05-07T13:08:05;5.88;;;4.00;;
6388;SDS011;3227;42.654;23.360;2023-05-07T13:10:32;6.93;;;3.65;;
6388;SDS011;3227;42.654;23.360;2023-05-07T13:13:00;6.43;;;3.40;;
6388;SDS011;3227;42.654;23.360;2023-05-07T13:15:27;5.18;;;3.10;;
6388;SDS011;3227;42.654;23.360;2023-05-07T13:17:53;6.50;;;3.25;;
6388;SDS011;3227;42.654;23.360;2023-05-07T13:20:22;6.28;;;3.30;;
6388;SDS011;3227;42.654;23.360;2023-05-07T13:22:48;7.18;;;3.10;;
6388;SDS011;3227;42.654;23.360;2023-05-07T13:25:15;5.95;;;3.30;;
6388;SDS011;3227;42.654;23.360;2023-05-07T13:27:42;6.22;;;3.30;;
6388;SDS011;3227;42.654;23.360;2023-05-07T13:30:09;7.22;;;3.40;;
6388;SDS011;3227;42.654;23.360;2023-05-07T13:32:36;6.53;;;3.40;;
6388;SDS011;3227;42.654;23.360;2023-05-07T13:35:03;8.45;;;3.95;;
6388;SDS011;3227;42.654;23.360;2023-05-07T13:37:32;6.63;;;3.40;;
6388;SDS011;3227;42.654;23.360;2023-05-07T13:40:01;7.07;;;3.50;;
6388;SDS011;3227;42.654;23.360;2023-05-07T13:42:28;5.22;;;3.30;;
6388;SDS011;3227;42.654;23.360;2023-05-07T13:44:55;6.97;;;3.53;;
6388;SDS011;3227;42.654;23.360;2023-05-07T13:47:23;5.75;;;3.30;;
6388;SDS011;3227;42.654;23.360;2023-05-07T13:49:49;7.13;;;3.60;;
6388;SDS011;3227;42.654;23.360;2023-05-07T13:52:17;7.87;;;3.40;;
6388;SDS011;3227;42.654;23.360;2023-05-07T13:54:46;6.88;;;3.60;;
6388;SDS011;3227;42.654;23.360;2023-05-07T13:57:13;10.02;;;3.50;;
6388;SDS011;3227;42.654;23.360;2023-05-07T13:59:40;7.03;;;3.63;;
6388;SDS011;3227;42.654;23.360;2023-05-07T14:02:07;7.78;;;3.60;;
6388;SDS011;3227;42.654;23.360;2023-05-07T14:04:34;5.68;;;3.20;;
6388;SDS011;3227;42.654;23.360;2023-05-07T14:07:01;6.22;;;3.33;;
6388;SDS011;3227;42.654;23.360;2023-05-07T14:09:28;6.50;;;3.42;;
6388;SDS011;3227;42.654;23.360;2023-05-07T14:11:56;5.35;;;3.03;;
6388;SDS011;3227;42.654;23.360;2023-05-07T14:14:25;5.75;;;3.30;;
6388;SDS011;3227;42.654;23.360;2023-05-07T14:16:52;5.60;;;3.25;;
6388;SDS011;3227;42.654;23.360;2023-05-07T14:19:18;8.30;;;3.38;;
6388;SDS011;3227;42.654;23.360;2023-05-07T14:21:47;4.80;;;3.17;;
6388;SDS011;3227;42.654;23.360;2023-05-07T14:24:14;5.35;;;3.10;;
6388;SDS011;3227;42.654;23.360;2023-05-07T14:26:41;9.15;;;3.28;;
6388;SDS011;3227;42.654;23.360;2023-05-07T14:29:14;6.93;;;3.50;;
6388;SDS011;3227;42.654;23.360;2023-05-07T14:31:44;5.25;;;3.38;;
6388;SDS011;3227;42.654;23.360;2023-05-07T14:34:10;6.07;;;3.47;;
6388;SDS011;3227;42.654;23.360;2023-05-07T14:36:37;7.95;;;3.10;;
6388;SDS011;3227;42.654;23.360;2023-05-07T14:39:04;6.38;;;3.67;;
6388;SDS011;3227;42.654;23.360;2023-05-07T14:41:31;7.60;;;3.88;;
6388;SDS011;3227;42.654;23.360;2023-05-07T14:43:58;5.55;;;3.40;;
6388;SDS011;3227;42.654;23.360;2023-05-07T14:46:26;11.13;;;3.30;;
6388;SDS011;3227;42.654;23.360;2023-05-07T14:48:53;6.22;;;3.50;;
6388;SDS011;3227;42.654;23.360;2023-05-07T14:51:20;5.15;;;3.30;;
6388;SDS011;3227;42.654;23.360;2023-05-07T14:53:47;9.25;;;3.72;;
6388;SDS011;3227;42.654;23.360;2023-05-07T14:56:14;11.52;;;3.50;;
6388;SDS011;3227;42.654;23.360;2023-05-07T14:58:42;6.93;;;3.13;;
6388;SDS011;3227;42.654;23.360;2023-05-07T15:01:09;6.95;;;3.58;;
6388;SDS011;3227;42.654;23.360;2023-05-07T15:03:37;5.57;;;3.40;;
6388;SDS011;3227;42.654;23.360;2023-05-07T15:06:04;7.03;;;3.42;;
6388;SDS011;3227;42.654;23.360;2023-05-07T15:08:31;5.82;;;3.35;;